sensor_id;sensor_type;location;lat;lon;timestamp;pressure;altitude;pressure_sealevel;temperature;humidity
65614;BME280;52283;49.292;10.572;2023-07-16T00:01:01;96204.16;;;20.31;100.00
65614;BME280;52283;49.292;10.572;2023-07-16T00:03:27;96190.34;;;20.43;100.00
65614;BME280;52283;49.292;10.572;2023-07-16T00:05:54;96179.75;;;20.44;100.00
65614;BME280;52283;49.292;10.572;2023-07-16T00:08:21;96177.66;;;20.36;100.00
65614;BME280;52283;49.292;10.572;2023-07-16T00:10:47;96183.44;;;20.21;100.00
65614;BME280;52283;49.292;10.572;2023-07-16T00:13:15;96190.22;;;20.18;100.00
65614;BME280;52283;49.292;10.572;2023-07-16T00:15:42;96184.44;;;20.08;100.00
65614;BME280;52283;49.292;10.572;2023-07-16T00:18:08;96178.00;;;20.08;100.00
65614;BME280;52283;49.292;10.572;2023-07-16T00:20:34;96195.44;;;19.97;100.00
65614;BME280;52283;49.292;10.572;2023-07-16T00:23:01;96203.00;;;20.02;100.00
65614;BME280;52283;49.292;10.572;2023-07-16T00:25:27;96215.50;;;19.91;100.00
65614;BME280;52283;49.292;10.572;2023-07-16T00:27:54;96209.66;;;19.89;100.00
65614;BME280;52283;49.292;10.572;2023-07-16T00:30:22;96218.19;;;19.82;100.00
65614;BME280;52283;49.292;10.572;2023-07-16T00:32:48;96244.50;;;19.67;100.00
65614;BME280;52283;49.292;10.572;2023-07-16T00:35:15;96252.44;;;19.53;100.00
65614;BME280;52283;49.292;10.572;2023-07-16T00:37:41;96286.84;;;19.42;100.00
65614;BME280;52283;49.292;10.572;2023-07-16T00:40:08;96282.47;;;19.48;100.00
65614;BME280;52283;49.292;10.572;2023-07-16T00:42:35;96288.34;;;19.43;100.00
65614;BME280;52283;49.292;10.572;2023-07-16T00:45:01;96294.00;;;19.20;100.00
65614;BME280;52283;49.292;10.572;2023-07-16T00:47:30;96295.16;;;19.17;100.00
65614;BME280;52283;49.292;10.572;2023-07-16T00:49:57;96294.94;;;19.07;100.00
65614;BME280;52283;49.292;10.572;2023-07-16T00:52:24;96294.34;;;18.94;100.00
65614;BME280;52283;49.292;10.572;2023-07-16T00:54:50;96299.25;;;18.93;100.00
65614;BME280;52283;49.292;10.572;2023-07-16T00:57:17;96306.41;;;18.79;100.00
65614;BME280;52283;49.292;10.572;2023-07-16T00:59:43;96303.22;;;18.75;100.00
65614;BME280;52283;49.292;10.572;2023-07-16T01:02:10;96293.53;;;18.63;100.00
65614;BME280;52283;49.292;10.572;2023-07-16T01:04:38;96306.16;;;18.62;100.00
65614;BME280;52283;49.292;10.572;2023-07-16T01:07:06;96303.16;;;18.67;100.00
65614;BME280;52283;49.292;10.572;2023-07-16T01:09:36;96296.09;;;18.45;100.00
65614;BME280;52283;49.292;10.572;2023-07-16T01:12:05;96334.94;;;18.45;100.00
65614;BME280;52283;49.292;10.572;2023-07-16T01:14:32;96305.72;;;18.50;100.00
65614;BME280;52283;49.292;10.572;2023-07-16T01:17:02;96316.47;;;18.44;100.00
65614;BME280;52283;49.292;10.572;2023-07-16T01:19:29;96319.13;;;18.49;100.00
65614;BME280;52283;49.292;10.572;2023-07-16T01:22:10;96319.88;;;18.50;100.00
65614;BME280;52283;49.292;10.572;2023-07-16T01:24:57;96302.00;;;18.55;100.00
65614;BME280;52283;49.292;10.572;2023-07-16T01:27:41;96305.56;;;18.55;100.00
65614;BME280;52283;49.292;10.572;2023-07-16T01:30:15;96309.50;;;18.52;100.00
65614;BME280;52283;49.292;10.572;2023-07-16T01:32:42;96324.31;;;18.74;100.00
65614;BME280;52283;49.292;10.572;2023-07-16T01:35:10;96311.06;;;18.61;100.00
65614;BME280;52283;49.292;10.572;2023-07-16T01:37:37;96296.00;;;18.66;100.00
65614;BME280;52283;49.292;10.572;2023-07-16T01:40:06;96295.97;;;18.58;100.00
65614;BME280;52283;49.292;10.572;2023-07-16T01:42:34;96308.22;;;18.61;100.00
65614;BME280;52283;49.292;10.572;2023-07-16T01:45:00;96303.97;;;18.75;100.00
65614;BME280;52283;49.292;10.572;2023-07-16T01:47:34;96311.47;;;18.73;100.00
65614;BME280;52283;49.292;10.572;2023-07-16T01:50:06;96304.34;;;18.87;100.00
65614;BME280;52283;49.292;10.572;2023-07-16T01:52:33;96296.63;;;19.03;100.00
65614;BME280;52283;49.292;10.572;2023-07-16T01:55:00;96281.16;;;18.96;100.00
65614;BME280;52283;49.292;10.572;2023-07-16T01:57:26;96285.50;;;19.05;100.00
65614;BME280;52283;49.292;10.572;2023-07-16T01:59:53;96302.13;;;19.01;100.00
65614;BME280;52283;49.292;10.572;2023-07-16T02:02:19;96312.50;;;18.98;100.00
65614;BME280;52283;49.292;10.572;2023-07-16T02:04:47;96309.47;;;18.96;100.00
65614;BME280;52283;49.292;10.572;2023-07-16T02:07:13;96318.91;;;18.99;100.00
65614;BME280;52283;49.292;10.572;2023-07-16T02:09:40;96322.66;;;18.86;100.00
65614;BME280;52283;49.292;10.572;2023-07-16T02:12:07;96317.56;;;18.92;100.00
65614;BME280;52283;49.292;10.572;2023-07-16T02:14:33;96307.41;;;19.04;100.00
65614;BME280;52283;49.292;10.572;2023-07-16T02:17:00;96313.78;;;18.89;100.00
65614;BME280;52283;49.292;10.572;2023-07-16T02:19:26;96324.53;;;18.91;100.00
65614;BME280;52283;49.292;10.572;2023-07-16T02:21:54;96317.19;;;18.88;100.00
65614;BME280;52283;49.292;10.572;2023-07-16T02:24:21;96322.47;;;18.92;100.00
65614;BME280;52283;49.292;10.572;2023-07-16T02:26:47;96327.00;;;18.87;100.00
65614;BME280;52283;49.292;10.572;2023-07-16T02:29:14;96337.94;;;18.91;100.00
65614;BME280;52283;49.292;10.572;2023-07-16T02:31:40;96343.59;;;18.83;100.00
65614;BME280;52283;49.292;10.572;2023-07-16T02:34:08;96359.66;;;18.88;100.00
65614;BME280;52283;49.292;10.572;2023-07-16T02:36:35;96365.88;;;18.79;100.00
65614;BME280;52283;49.292;10.572;2023-07-16T02:39:03;96367.94;;;18.78;100.00
65614;BME280;52283;49.292;10.572;2023-07-16T02:41:29;96368.09;;;18.73;100.00
65614;BME280;52283;49.292;10.572;2023-07-16T02:43:59;96371.28;;;18.69;100.00
65614;BME280;52283;49.292;10.572;2023-07-16T02:46:26;96370.59;;;18.84;100.00
65614;BME280;52283;49.292;10.572;2023-07-16T02:48:52;96360.03;;;18.84;100.00
65614;BME280;52283;49.292;10.572;2023-07-16T02:51:18;96350.38;;;18.80;100.00
65614;BME280;52283;49.292;10.572;2023-07-16T02:53:45;96345.88;;;18.84;100.00
65614;BME280;52283;49.292;10.572;2023-07-16T02:56:13;96349.03;;;18.73;100.00
65614;BME280;52283;49.292;10.572;2023-07-16T02:58:39;96348.44;;;18.67;100.00
65614;BME280;52283;49.292;10.572;2023-07-16T03:01:06;96364.81;;;18.61;100.00
65614;BME280;52283;49.292;10.572;2023-07-16T03:03:32;96377.94;;;18.43;100.00
65614;BME280;52283;49.292;10.572;2023-07-16T03:05:58;96388.50;;;18.43;100.00
65614;BME280;52283;49.292;10.572;2023-07-16T03:08:25;96390.41;;;18.48;100.00
65614;BME280;52283;49.292;10.572;2023-07-16T03:10:55;96397.94;;;18.45;100.00
65614;BME280;52283;49.292;10.572;2023-07-16T03:13:23;96388.69;;;18.37;100.00
65614;BME280;52283;49.292;10.572;2023-07-16T03:15:49;96375.66;;;18.34;100.00
65614;BME280;52283;49.292;10.572;2023-07-16T03:18:17;96376.47;;;18.14;100.00
65614;BME280;52283;49.292;10.572;2023-07-16T03:20:44;96377.72;;;18.05;100.00
65614;BME280;52283;49.292;10.572;2023-07-16T03:23:10;96395.97;;;17.96;100.00
65614;BME280;52283;49.292;10.572;2023-07-16T03:25:37;96413.22;;;17.85;100.00
65614;BME280;52283;49.292;10.572;2023-07-16T03:28:03;96423.91;;;17.79;100.00
65614;BME280;52283;49.292;10.572;2023-07-16T03:30:31;96413.97;;;17.65;100.00
65614;BME280;52283;49.292;10.572;2023-07-16T03:32:58;96408.97;;;17.50;100.00
65614;BME280;52283;49.292;10.572;2023-07-16T03:35:25;96401.72;;;17.42;100.00
65614;BME280;52283;49.292;10.572;2023-07-16T03:37:51;96395.25;;;17.33;100.00
65614;BME280;52283;49.292;10.572;2023-07-16T03:40:22;96398.53;;;17.24;100.00
65614;BME280;52283;49.292;10.572;2023-07-16T03:42:49;96400.06;;;17.25;100.00
65614;BME280;52283;49.292;10.572;2023-07-16T03:45:16;96421.59;;;17.15;100.00
65614;BME280;52283;49.292;10.572;2023-07-16T03:47:44;96417.69;;;17.18;100.00
65614;BME280;52283;49.292;10.572;2023-07-16T03:50:10;96430.84;;;17.16;100.00
65614;BME280;52283;49.292;10.572;2023-07-16T03:52:37;96438.25;;;17.05;100.00
65614;BME280;52283;49.292;10.572;2023-07-16T03:55:04;96446.84;;;17.00;100.00
65614;BME280;52283;49.292;10.572;2023-07-16T03:57:32;96453.88;;;17.06;100.00
65614;BME280;52283;49.292;10.572;2023-07-16T03:59:58;96473.75;;;17.01;100.00
65614;BME280;52283;49.292;10.572;2023-07-16T04:02:25;96491.78;;;16.98;100.00
65614;BME280;52283;49.292;10.572;2023-07-16T04:04:53;96489.28;;;17.08;100.00
65614;BME280;52283;49.292;10.572;2023-07-16T04:07:19;96484.63;;;16.97;100.00
65614;BME280;52283;49.292;10.572;2023-07-16T04:09:45;96497.75;;;17.08;100.00
65614;BME280;52283;49.292;10.572;2023-07-16T04:12:12;96510.13;;;17.04;100.00
65614;BME280;52283;49.292;10.572;2023-07-16T04:14:38;96511.22;;;17.01;100.00
65614;BME280;52283;49.292;10.572;2023-07-16T04:17:05;96511.56;;;16.98;100.00
65614;BME280;52283;49.292;10.572;2023-07-16T04:19:31;96521.75;;;17.01;100.00
65614;BME280;52283;49.292;10.572;2023-07-16T04:21:59;96523.81;;;17.00;100.00
65614;BME280;52283;49.292;10.572;2023-07-16T04:24:26;96519.34;;;17.05;100.00
65614;BME280;52283;49.292;10.572;2023-07-16T04:26:52;96533.59;;;16.99;100.00
65614;BME280;52283;49.292;10.572;2023-07-16T04:29:19;96519.47;;;16.99;100.00
65614;BME280;52283;49.292;10.572;2023-07-16T04:31:45;96525.47;;;16.96;100.00
65614;BME280;52283;49.292;10.572;2023-07-16T04:34:12;96530.34;;;17.09;100.00
65614;BME280;52283;49.292;10.572;2023-07-16T04:36:38;96544.06;;;17.25;100.00
65614;BME280;52283;49.292;10.572;2023-07-16T04:39:06;96540.75;;;17.48;100.00
65614;BME280;52283;49.292;10.572;2023-07-16T04:41:33;96558.25;;;17.46;100.00
65614;BME280;52283;49.292;10.572;2023-07-16T04:43:59;96555.34;;;17.38;100.00
65614;BME280;52283;49.292;10.572;2023-07-16T04:46:25;96536.41;;;17.47;100.00
65614;BME280;52283;49.292;10.572;2023-07-16T04:48:52;96541.25;;;17.73;100.00
65614;BME280;52283;49.292;10.572;2023-07-16T04:51:18;96545.38;;;17.72;100.00
65614;BME280;52283;49.292;10.572;2023-07-16T04:53:45;96548.81;;;17.44;100.00
65614;BME280;52283;49.292;10.572;2023-07-16T04:56:13;96541.31;;;17.46;100.00
65614;BME280;52283;49.292;10.572;2023-07-16T04:58:40;96547.41;;;17.50;100.00
65614;BME280;52283;49.292;10.572;2023-07-16T05:01:07;96556.19;;;17.47;100.00
65614;BME280;52283;49.292;10.572;2023-07-16T05:03:34;96543.22;;;17.30;100.00
65614;BME280;52283;49.292;10.572;2023-07-16T05:06:00;96561.97;;;17.28;100.00
65614;BME280;52283;49.292;10.572;2023-07-16T05:08:27;96557.53;;;17.32;100.00
65614;BME280;52283;49.292;10.572;2023-07-16T05:10:54;96540.13;;;17.42;100.00
65614;BME280;52283;49.292;10.572;2023-07-16T05:13:22;96558.72;;;17.37;100.00
65614;BME280;52283;49.292;10.572;2023-07-16T05:15:48;96550.78;;;17.35;100.00
65614;BME280;52283;49.292;10.572;2023-07-16T05:18:15;96566.06;;;17.53;100.00
65614;BME280;52283;49.292;10.572;2023-07-16T05:20:42;96566.72;;;17.46;100.00
65614;BME280;52283;49.292;10.572;2023-07-16T05:23:09;96571.19;;;17.42;100.00
65614;BME280;52283;49.292;10.572;2023-07-16T05:25:36;96577.25;;;17.46;100.00
65614;BME280;52283;49.292;10.572;2023-07-16T05:28:02;96583.13;;;17.48;100.00
65614;BME280;52283;49.292;10.572;2023-07-16T05:30:30;96582.59;;;17.49;100.00
65614;BME280;52283;49.292;10.572;2023-07-16T05:32:57;96576.94;;;17.49;100.00
65614;BME280;52283;49.292;10.572;2023-07-16T05:35:23;96575.00;;;17.44;100.00
65614;BME280;52283;49.292;10.572;2023-07-16T05:37:49;96566.16;;;17.61;100.00
65614;BME280;52283;49.292;10.572;2023-07-16T05:40:16;96569.66;;;17.54;100.00
65614;BME280;52283;49.292;10.572;2023-07-16T05:42:43;96562.91;;;17.57;100.00
65614;BME280;52283;49.292;10.572;2023-07-16T05:45:09;96589.44;;;17.54;100.00
65614;BME280;52283;49.292;10.572;2023-07-16T05:47:37;96588.97;;;17.63;100.00
65614;BME280;52283;49.292;10.572;2023-07-16T05:50:05;96590.94;;;17.55;100.00
65614;BME280;52283;49.292;10.572;2023-07-16T05:52:31;96608.31;;;17.72;100.00
65614;BME280;52283;49.292;10.572;2023-07-16T05:54:58;96593.44;;;17.72;100.00
65614;BME280;52283;49.292;10.572;2023-07-16T05:57:24;96599.84;;;17.59;100.00
65614;BME280;52283;49.292;10.572;2023-07-16T05:59:51;96599.44;;;17.55;100.00
65614;BME280;52283;49.292;10.572;2023-07-16T06:02:17;96611.63;;;17.50;100.00
65614;BME280;52283;49.292;10.572;2023-07-16T06:04:45;96605.84;;;17.55;100.00
65614;BME280;52283;49.292;10.572;2023-07-16T06:07:12;96623.22;;;17.59;100.00
65614;BME280;52283;49.292;10.572;2023-07-16T06:09:39;96624.44;;;17.51;100.00
65614;BME280;52283;49.292;10.572;2023-07-16T06:12:05;96625.09;;;17.44;100.00
65614;BME280;52283;49.292;10.572;2023-07-16T06:14:32;96635.41;;;17.54;100.00
65614;BME280;52283;49.292;10.572;2023-07-16T06:16:58;96646.03;;;17.48;100.00
65614;BME280;52283;49.292;10.572;2023-07-16T06:19:25;96637.47;;;17.54;100.00
65614;BME280;52283;49.292;10.572;2023-07-16T06:21:52;96642.16;;;17.51;100.00
65614;BME280;52283;49.292;10.572;2023-07-16T06:24:19;96637.22;;;17.65;100.00
65614;BME280;52283;49.292;10.572;2023-07-16T06:26:45;96637.22;;;17.78;100.00
65614;BME280;52283;49.292;10.572;2023-07-16T06:29:13;96637.06;;;17.84;100.00
65614;BME280;52283;49.292;10.572;2023-07-16T06:31:42;96647.69;;;17.70;100.00
65614;BME280;52283;49.292;10.572;2023-07-16T06:34:09;96636.59;;;17.72;100.00
65614;BME280;52283;49.292;10.572;2023-07-16T06:36:38;96646.03;;;17.75;100.00
65614;BME280;52283;49.292;10.572;2023-07-16T06:39:06;96644.66;;;17.89;100.00
65614;BME280;52283;49.292;10.572;2023-07-16T06:41:32;96638.25;;;17.88;100.00
65614;BME280;52283;49.292;10.572;2023-07-16T06:43:59;96650.16;;;17.74;100.00
65614;BME280;52283;49.292;10.572;2023-07-16T06:46:25;96646.78;;;17.62;100.00
65614;BME280;52283;49.292;10.572;2023-07-16T06:48:52;96651.13;;;17.63;100.00
65614;BME280;52283;49.292;10.572;2023-07-16T06:51:18;96644.31;;;17.72;100.00
65614;BME280;52283;49.292;10.572;2023-07-16T06:53:45;96666.06;;;17.50;100.00
65614;BME280;52283;49.292;10.572;2023-07-16T06:56:13;96660.63;;;17.39;100.00
65614;BME280;52283;49.292;10.572;2023-07-16T06:58:39;96666.47;;;17.41;100.00
65614;BME280;52283;49.292;10.572;2023-07-16T07:01:06;96668.13;;;17.50;100.00
65614;BME280;52283;49.292;10.572;2023-07-16T07:03:32;96659.31;;;17.53;100.00
65614;BME280;52283;49.292;10.572;2023-07-16T07:06:01;96663.75;;;17.49;100.00
65614;BME280;52283;49.292;10.572;2023-07-16T07:08:28;96666.56;;;17.49;100.00
65614;BME280;52283;49.292;10.572;2023-07-16T07:10:55;96668.22;;;17.57;100.00
65614;BME280;52283;49.292;10.572;2023-07-16T07:13:23;96659.41;;;17.74;100.00
65614;BME280;52283;49.292;10.572;2023-07-16T07:15:50;96670.38;;;17.78;100.00
65614;BME280;52283;49.292;10.572;2023-07-16T07:18:16;96664.09;;;17.72;100.00
65614;BME280;52283;49.292;10.572;2023-07-16T07:20:43;96661.03;;;17.56;100.00
65614;BME280;52283;49.292;10.572;2023-07-16T07:23:09;96660.38;;;17.77;100.00
65614;BME280;52283;49.292;10.572;2023-07-16T07:25:35;96653.19;;;17.76;100.00
65614;BME280;52283;49.292;10.572;2023-07-16T07:28:02;96656.59;;;17.74;100.00
65614;BME280;52283;49.292;10.572;2023-07-16T07:30:30;96657.94;;;17.94;100.00
65614;BME280;52283;49.292;10.572;2023-07-16T07:32:57;96655.47;;;18.11;100.00
65614;BME280;52283;49.292;10.572;2023-07-16T07:35:23;96648.50;;;17.91;100.00
65614;BME280;52283;49.292;10.572;2023-07-16T07:37:50;96655.72;;;18.00;100.00
65614;BME280;52283;49.292;10.572;2023-07-16T07:40:16;96662.63;;;17.91;100.00
65614;BME280;52283;49.292;10.572;2023-07-16T07:42:43;96655.47;;;18.11;100.00
65614;BME280;52283;49.292;10.572;2023-07-16T07:45:10;96664.00;;;17.98;100.00
65614;BME280;52283;49.292;10.572;2023-07-16T07:47:37;96657.53;;;17.77;100.00
65614;BME280;52283;49.292;10.572;2023-07-16T07:50:05;96665.09;;;17.95;100.00
65614;BME280;52283;49.292;10.572;2023-07-16T07:52:31;96673.38;;;17.93;100.00
65614;BME280;52283;49.292;10.572;2023-07-16T07:54:58;96662.31;;;17.82;100.00
65614;BME280;52283;49.292;10.572;2023-07-16T07:57:24;96666.31;;;17.86;100.00
65614;BME280;52283;49.292;10.572;2023-07-16T07:59:51;96672.91;;;18.02;100.00
65614;BME280;52283;49.292;10.572;2023-07-16T08:02:21;96675.69;;;17.81;100.00
65614;BME280;52283;49.292;10.572;2023-07-16T08:04:50;96674.56;;;17.97;100.00
65614;BME280;52283;49.292;10.572;2023-07-16T08:07:17;96668.84;;;18.11;100.00
65614;BME280;52283;49.292;10.572;2023-07-16T08:09:43;96664.75;;;18.33;100.00
65614;BME280;52283;49.292;10.572;2023-07-16T08:12:10;96669.00;;;18.26;100.00
65614;BME280;52283;49.292;10.572;2023-07-16T08:14:36;96673.16;;;18.25;100.00
65614;BME280;52283;49.292;10.572;2023-07-16T08:17:03;96677.66;;;18.41;100.00
65614;BME280;52283;49.292;10.572;2023-07-16T08:19:30;96674.25;;;18.22;100.00
65614;BME280;52283;49.292;10.572;2023-07-16T08:21:58;96663.97;;;18.53;100.00
65614;BME280;52283;49.292;10.572;2023-07-16T08:24:25;96678.94;;;18.74;100.00
65614;BME280;52283;49.292;10.572;2023-07-16T08:26:51;96683.19;;;18.88;100.00
65614;BME280;52283;49.292;10.572;2023-07-16T08:29:18;96678.19;;;19.02;100.00
65614;BME280;52283;49.292;10.572;2023-07-16T08:31:44;96679.16;;;19.05;100.00
65614;BME280;52283;49.292;10.572;2023-07-16T08:34:11;96681.19;;;19.25;100.00
65614;BME280;52283;49.292;10.572;2023-07-16T08:36:37;96685.19;;;18.80;100.00
65614;BME280;52283;49.292;10.572;2023-07-16T08:39:05;96696.34;;;19.07;100.00
65614;BME280;52283;49.292;10.572;2023-07-16T08:41:33;96699.06;;;18.92;100.00
65614;BME280;52283;49.292;10.572;2023-07-16T08:43:59;96702.75;;;18.79;100.00
65614;BME280;52283;49.292;10.572;2023-07-16T08:46:26;96690.38;;;18.69;100.00
65614;BME280;52283;49.292;10.572;2023-07-16T08:48:53;96698.66;;;18.87;100.00
65614;BME280;52283;49.292;10.572;2023-07-16T08:51:20;96690.53;;;19.12;100.00
65614;BME280;52283;49.292;10.572;2023-07-16T08:53:47;96691.69;;;19.45;100.00
65614;BME280;52283;49.292;10.572;2023-07-16T08:56:15;96684.00;;;19.97;100.00
65614;BME280;52283;49.292;10.572;2023-07-16T08:58:43;96684.97;;;21.05;100.00
65614;BME280;52283;49.292;10.572;2023-07-16T09:01:10;96696.75;;;20.19;100.00
65614;BME280;52283;49.292;10.572;2023-07-16T09:03:36;96695.72;;;19.94;100.00
65614;BME280;52283;49.292;10.572;2023-07-16T09:06:04;96695.91;;;20.55;100.00
65614;BME280;52283;49.292;10.572;2023-07-16T09:08:30;96691.19;;;20.50;100.00
65614;BME280;52283;49.292;10.572;2023-07-16T09:10:58;96687.41;;;20.47;100.00
65614;BME280;52283;49.292;10.572;2023-07-16T09:13:26;96692.50;;;19.97;100.00
65614;BME280;52283;49.292;10.572;2023-07-16T09:15:53;96697.50;;;20.20;100.00
65614;BME280;52283;49.292;10.572;2023-07-16T09:18:20;96699.88;;;19.57;100.00
65614;BME280;52283;49.292;10.572;2023-07-16T09:20:47;96704.13;;;19.71;100.00
65614;BME280;52283;49.292;10.572;2023-07-16T09:23:17;96704.47;;;19.60;100.00
65614;BME280;52283;49.292;10.572;2023-07-16T09:25:44;96697.59;;;19.84;100.00
65614;BME280;52283;49.292;10.572;2023-07-16T09:28:10;96697.53;;;19.76;100.00
65614;BME280;52283;49.292;10.572;2023-07-16T09:30:38;96688.41;;;20.14;100.00
65614;BME280;52283;49.292;10.572;2023-07-16T09:33:12;96686.44;;;20.60;98.52
65614;BME280;52283;49.292;10.572;2023-07-16T09:35:39;96660.47;;;21.40;93.06
65614;BME280;52283;49.292;10.572;2023-07-16T09:38:07;96649.41;;;22.72;86.09
65614;BME280;52283;49.292;10.572;2023-07-16T09:40:35;96636.22;;;22.59;80.07
65614;BME280;52283;49.292;10.572;2023-07-16T09:43:02;96645.22;;;21.75;77.87
65614;BME280;52283;49.292;10.572;2023-07-16T09:45:29;96651.44;;;20.57;82.00
65614;BME280;52283;49.292;10.572;2023-07-16T09:47:57;96674.16;;;20.80;85.36
65614;BME280;52283;49.292;10.572;2023-07-16T09:50:24;96673.00;;;20.60;85.75
65614;BME280;52283;49.292;10.572;2023-07-16T09:52:52;96663.94;;;20.77;82.47
65614;BME280;52283;49.292;10.572;2023-07-16T09:55:21;96662.63;;;21.24;79.75
65614;BME280;52283;49.292;10.572;2023-07-16T09:57:49;96663.56;;;20.96;83.07
65614;BME280;52283;49.292;10.572;2023-07-16T10:00:17;96665.06;;;21.12;85.18
65614;BME280;52283;49.292;10.572;2023-07-16T10:02:46;96659.19;;;21.10;85.98
65614;BME280;52283;49.292;10.572;2023-07-16T10:05:15;96655.50;;;21.55;81.74
65614;BME280;52283;49.292;10.572;2023-07-16T10:07:42;96666.19;;;21.32;81.97
65614;BME280;52283;49.292;10.572;2023-07-16T10:10:10;96653.72;;;21.05;81.36
65614;BME280;52283;49.292;10.572;2023-07-16T10:12:37;96648.97;;;20.92;82.21
65614;BME280;52283;49.292;10.572;2023-07-16T10:15:05;96662.44;;;20.91;82.20
65614;BME280;52283;49.292;10.572;2023-07-16T10:17:32;96649.16;;;20.79;82.21
65614;BME280;52283;49.292;10.572;2023-07-16T10:19:59;96659.91;;;21.41;80.54
65614;BME280;52283;49.292;10.572;2023-07-16T10:22:37;96668.84;;;21.30;81.79
65614;BME280;52283;49.292;10.572;2023-07-16T10:25:22;96664.72;;;20.62;81.80
65614;BME280;52283;49.292;10.572;2023-07-16T10:27:49;96673.41;;;20.72;81.94
65614;BME280;52283;49.292;10.572;2023-07-16T10:30:17;96659.22;;;20.87;80.24
65614;BME280;52283;49.292;10.572;2023-07-16T10:32:44;96667.72;;;20.87;81.58
65614;BME280;52283;49.292;10.572;2023-07-16T10:35:11;96658.25;;;21.08;81.98
65614;BME280;52283;49.292;10.572;2023-07-16T10:37:39;96648.97;;;21.07;79.52
65614;BME280;52283;49.292;10.572;2023-07-16T10:40:10;96639.22;;;21.96;76.21
65614;BME280;52283;49.292;10.572;2023-07-16T10:42:37;96646.91;;;22.51;73.19
65614;BME280;52283;49.292;10.572;2023-07-16T10:45:04;96647.00;;;21.96;75.42
65614;BME280;52283;49.292;10.572;2023-07-16T10:47:32;96659.56;;;21.14;77.39
65614;BME280;52283;49.292;10.572;2023-07-16T10:49:59;96644.00;;;21.86;75.17
65614;BME280;52283;49.292;10.572;2023-07-16T10:52:26;96656.88;;;22.35;72.35
65614;BME280;52283;49.292;10.572;2023-07-16T10:54:54;96636.50;;;21.73;73.23
65614;BME280;52283;49.292;10.572;2023-07-16T10:57:23;96647.41;;;21.92;75.96
65614;BME280;52283;49.292;10.572;2023-07-16T10:59:51;96627.84;;;22.86;69.55
65614;BME280;52283;49.292;10.572;2023-07-16T11:02:18;96637.88;;;22.62;73.06
65614;BME280;52283;49.292;10.572;2023-07-16T11:04:45;96636.34;;;22.11;74.51
65614;BME280;52283;49.292;10.572;2023-07-16T11:07:13;96644.41;;;21.82;76.81
65614;BME280;52283;49.292;10.572;2023-07-16T11:09:41;96641.88;;;21.54;77.05
65614;BME280;52283;49.292;10.572;2023-07-16T11:12:11;96628.84;;;21.91;75.86
65614;BME280;52283;49.292;10.572;2023-07-16T11:14:39;96628.00;;;22.06;76.04
65614;BME280;52283;49.292;10.572;2023-07-16T11:17:08;96616.88;;;22.25;72.82
65614;BME280;52283;49.292;10.572;2023-07-16T11:19:37;96622.56;;;22.33;73.46
65614;BME280;52283;49.292;10.572;2023-07-16T11:22:05;96619.50;;;23.05;70.82
65614;BME280;52283;49.292;10.572;2023-07-16T11:24:36;96615.22;;;22.72;69.33
65614;BME280;52283;49.292;10.572;2023-07-16T11:27:05;96615.81;;;23.30;68.39
65614;BME280;52283;49.292;10.572;2023-07-16T11:29:36;96619.75;;;23.86;66.15
65614;BME280;52283;49.292;10.572;2023-07-16T11:32:04;96609.69;;;24.12;64.75
65614;BME280;52283;49.292;10.572;2023-07-16T11:34:31;96605.53;;;23.17;66.31
65614;BME280;52283;49.292;10.572;2023-07-16T11:37:07;96615.56;;;22.76;72.62
65614;BME280;52283;49.292;10.572;2023-07-16T11:39:34;96618.84;;;23.15;71.28
65614;BME280;52283;49.292;10.572;2023-07-16T11:42:02;96600.34;;;23.58;68.29
65614;BME280;52283;49.292;10.572;2023-07-16T11:44:32;96609.41;;;23.91;64.78
65614;BME280;52283;49.292;10.572;2023-07-16T11:47:01;96602.00;;;23.78;63.56
65614;BME280;52283;49.292;10.572;2023-07-16T11:49:28;96602.84;;;23.54;62.82
65614;BME280;52283;49.292;10.572;2023-07-16T11:51:54;96595.41;;;24.29;64.17
65614;BME280;52283;49.292;10.572;2023-07-16T11:54:21;96595.16;;;24.45;63.03
65614;BME280;52283;49.292;10.572;2023-07-16T11:56:47;96596.75;;;24.28;63.32
65614;BME280;52283;49.292;10.572;2023-07-16T11:59:16;96600.13;;;23.73;66.02
65614;BME280;52283;49.292;10.572;2023-07-16T12:01:45;96608.31;;;23.59;67.61
65614;BME280;52283;49.292;10.572;2023-07-16T12:04:13;96593.44;;;23.26;64.41
65614;BME280;52283;49.292;10.572;2023-07-16T12:06:39;96593.22;;;24.20;64.42
65614;BME280;52283;49.292;10.572;2023-07-16T12:09:06;96581.03;;;23.93;60.73
65614;BME280;52283;49.292;10.572;2023-07-16T12:11:32;96573.91;;;24.01;62.23
65614;BME280;52283;49.292;10.572;2023-07-16T12:13:59;96568.44;;;25.15;61.21
65614;BME280;52283;49.292;10.572;2023-07-16T12:16:25;96571.19;;;24.30;60.00
65614;BME280;52283;49.292;10.572;2023-07-16T12:18:52;96567.44;;;24.01;60.44
65614;BME280;52283;49.292;10.572;2023-07-16T12:21:19;96573.50;;;24.42;58.63
65614;BME280;52283;49.292;10.572;2023-07-16T12:23:46;96578.78;;;24.18;58.20
65614;BME280;52283;49.292;10.572;2023-07-16T12:26:12;96566.75;;;24.37;58.59
65614;BME280;52283;49.292;10.572;2023-07-16T12:28:39;96558.00;;;24.81;59.37
65614;BME280;52283;49.292;10.572;2023-07-16T12:31:06;96556.59;;;24.63;57.28
65614;BME280;52283;49.292;10.572;2023-07-16T12:33:32;96566.59;;;24.45;58.03
65614;BME280;52283;49.292;10.572;2023-07-16T12:35:59;96547.91;;;24.90;56.53
65614;BME280;52283;49.292;10.572;2023-07-16T12:38:27;96559.72;;;25.04;56.13
65614;BME280;52283;49.292;10.572;2023-07-16T12:40:53;96548.63;;;24.25;56.28
65614;BME280;52283;49.292;10.572;2023-07-16T12:43:19;96564.75;;;24.03;59.81